KADG/ADG METAR and TAF weather

Enter ICAO airport designator
Station Type Date Time Source
KADG METAR 2019/10/21 22:53 UTC NOAA

KADG 212253Z AUTO 18011KT 10SM -RA OVC100 16/14 A2964 RMK AO2 SLP039 P0002 T01610139


Station Type Date Time Source
KADG Decoded METAR 2019/10/21 22:53 UTC NOAA

ADRIAN LENAWEE COUNTY AIRPORT, MI, United States (KADG) 41-52N 84-05W 241M
Oct 21, 2019 - 06:53 PM EDT / 2019.10.21 2253 UTC
Wind: from the S (180 degrees) at 13 MPH (11 KT):0
Visibility: 10 mile(s):0
Sky conditions: overcast
Weather: light rain
Precipitation last hour: 0.02 inches
Temperature: 61.0 F (16.1 C)
Dew Point: 57.0 F (13.9 C)
Relative Humidity: 86%
Pressure (altimeter): 29.64 in. Hg (1003 hPa)
ob: KADG 212253Z AUTO 18011KT 10SM -RA OVC100 16/14 A2964 RMK AO2 SLP039 P0002 T01610139
cycle: 23

Station Type Date Time Source
KADG TAF UTC NOAA

Error!

Example: see airport list